Time;durP1;ratioP1;P1;durP2;ratioP2;P2;SDS_P1;SDS_P2;PMS_P1;PMS_P2;Temp;Humidity;BMP_temperature;BMP_pressure;BME280_temperature;BME280_humidity;BME280_pressure;Samples;Min_cycle;Max_cycle;Signal;HPM_P1;HPM_P2
2021/12/08 00:00:17;;;;;;;8.93;2.38;;;2.30;99.90;;;;;;5101717;28;20501;-78
2021/12/08 00:02:44;;;;;;;9.45;2.13;;;2.40;99.90;;;;;;4396391;27;10001065;-78
2021/12/08 00:05:11;;;;;;;7.07;2.42;;;2.40;99.90;;;;;;5097952;27;20024;-78
2021/12/08 00:07:37;;;;;;;5.68;2.20;;;2.40;99.90;;;;;;5101119;28;20397;-78
2021/12/08 00:10:15;;;;;;;5.43;2.20;;;2.40;99.90;;;;;;5098324;28;20019;-78
2021/12/08 00:15:27;;;;;;;4.47;1.80;;;2.50;99.90;;;;;;5093995;28;20801;-78
2021/12/08 00:17:53;;;;;;;7.78;2.20;;;2.50;99.90;;;;;;5101704;28;20545;-78
2021/12/08 00:20:19;;;;;;;7.03;2.15;;;2.50;99.90;;;;;;5098751;28;20035;-79
2021/12/08 00:22:45;;;;;;;5.00;2.08;;;2.50;99.90;;;;;;5099973;28;20028;-78
2021/12/08 00:25:10;;;;;;;6.00;2.15;;;2.50;99.90;;;;;;5103149;28;20084;-78
2021/12/08 00:27:37;;;;;;;4.35;1.90;;;2.60;99.90;;;;;;5100821;28;20020;-78
2021/12/08 00:30:04;;;;;;;4.72;1.90;;;2.50;99.90;;;;;;5102742;28;20062;-78
2021/12/08 00:32:32;;;;;;;5.22;2.00;;;2.50;99.90;;;;;;5101789;28;20051;-79
2021/12/08 00:34:57;;;;;;;5.47;1.92;;;2.60;99.90;;;;;;5105798;28;20153;-78
2021/12/08 00:37:23;;;;;;;5.60;1.90;;;2.60;99.90;;;;;;5097419;28;20119;-78
2021/12/08 00:39:50;;;;;;;5.90;2.28;;;2.60;99.90;;;;;;5098069;28;20114;-78
2021/12/08 00:42:16;;;;;;;4.50;1.77;;;2.60;99.90;;;;;;5089228;28;20507;-79
2021/12/08 00:44:41;;;;;;;5.78;2.10;;;2.60;99.90;;;;;;5102680;28;20110;-78
2021/12/08 00:47:07;;;;;;;6.68;1.90;;;2.60;99.90;;;;;;5105380;28;20409;-77
2021/12/08 00:49:33;;;;;;;4.93;1.95;;;2.60;99.90;;;;;;5109221;28;20020;-79
2021/12/08 00:51:58;;;;;;;6.03;1.80;;;2.70;99.90;;;;;;5095278;28;20032;-79
2021/12/08 00:54:24;;;;;;;6.65;1.80;;;2.70;99.90;;;;;;5101543;28;20404;-79
2021/12/08 00:56:50;;;;;;;4.22;1.55;;;2.70;99.90;;;;;;5094664;28;20521;-78
2021/12/08 00:59:15;;;;;;;6.22;1.58;;;2.70;99.90;;;;;;5106881;28;20028;-79
2021/12/08 01:01:41;;;;;;;3.70;1.90;;;2.60;99.90;;;;;;5100518;28;20130;-79
2021/12/08 01:04:07;;;;;;;4.13;1.90;;;2.60;99.90;;;;;;5106783;28;20099;-78
2021/12/08 01:06:33;;;;;;;3.53;1.60;;;2.60;99.90;;;;;;5107908;28;20049;-79
2021/12/08 01:08:59;;;;;;;4.35;1.42;;;2.60;99.90;;;;;;5109060;28;20032;-79
2021/12/08 01:11:26;;;;;;;5.60;1.77;;;2.60;99.90;;;;;;5095176;28;20039;-79
2021/12/08 01:13:52;;;;;;;3.70;1.60;;;2.60;99.90;;;;;;5100655;28;20020;-78
2021/12/08 01:16:19;;;;;;;4.20;1.73;;;2.60;99.90;;;;;;5105892;28;20149;-78
2021/12/08 01:18:45;;;;;;;4.90;1.40;;;2.60;99.90;;;;;;5110681;28;20546;-78
2021/12/08 01:21:12;;;;;;;2.72;1.60;;;2.70;99.90;;;;;;5096918;28;20036;-78
2021/12/08 01:23:38;;;;;;;3.80;1.27;;;2.70;99.90;;;;;;5098300;28;20023;-79
2021/12/08 01:26:07;;;;;;;5.43;1.70;;;2.80;99.90;;;;;;5099535;28;20027;-79
2021/12/08 01:28:33;;;;;;;4.13;1.30;;;2.80;99.90;;;;;;5105277;28;20437;-79
2021/12/08 01:31:01;;;;;;;5.10;1.63;;;2.80;99.90;;;;;;5095782;28;20165;-79
2021/12/08 01:33:29;;;;;;;4.47;1.48;;;2.80;99.90;;;;;;5085165;28;20079;-80
2021/12/08 01:35:55;;;;;;;7.25;1.77;;;2.90;99.90;;;;;;5090099;28;20031;-79
2021/12/08 01:38:22;;;;;;;2.50;1.20;;;2.90;99.90;;;;;;5073858;28;20025;-78
2021/12/08 01:40:49;;;;;;;3.88;1.50;;;2.90;99.90;;;;;;5079868;28;20508;-79
2021/12/08 01:46:05;;;;;;;4.00;1.40;;;3.00;99.90;;;;;;5043605;28;20028;-79
2021/12/08 01:48:36;;;;;;;4.60;1.65;;;3.00;99.90;;;;;;5082994;28;20031;-78
2021/12/08 01:51:17;;;;;;;3.65;1.40;;;3.00;99.90;;;;;;5073842;28;20047;-79
2021/12/08 01:53:46;;;;;;;5.80;1.42;;;3.00;99.90;;;;;;5075343;28;20082;-79
2021/12/08 01:56:12;;;;;;;3.70;1.80;;;3.00;99.90;;;;;;5084648;28;20462;-79
2021/12/08 01:58:38;;;;;;;3.92;1.50;;;3.00;99.90;;;;;;5079235;28;20024;-79
2021/12/08 02:01:09;;;;;;;4.30;2.08;;;3.00;99.90;;;;;;5074850;28;20037;-79
2021/12/08 02:03:37;;;;;;;4.78;1.50;;;3.00;99.90;;;;;;5075144;28;20028;-78
2021/12/08 02:06:06;;;;;;;2.88;1.45;;;3.00;99.90;;;;;;5086059;28;20031;-79
2021/12/08 02:08:32;;;;;;;3.60;1.27;;;3.00;99.90;;;;;;5076759;28;20084;-78
2021/12/08 02:10:59;;;;;;;5.78;1.70;;;3.00;99.90;;;;;;5084968;28;20028;-79
2021/12/08 02:13:27;;;;;;;5.88;1.50;;;3.10;99.90;;;;;;5084220;28;20019;-79
2021/12/08 02:15:53;;;;;;;4.93;1.42;;;3.10;99.90;;;;;;5085771;28;20055;-78
2021/12/08 02:18:18;;;;;;;3.97;1.40;;;3.10;99.90;;;;;;5085105;28;20050;-78
2021/12/08 02:20:47;;;;;;;4.97;1.50;;;3.10;99.90;;;;;;5078816;28;20021;-78
2021/12/08 02:23:13;;;;;;;2.60;1.40;;;3.10;99.90;;;;;;5079692;28;20046;-79
2021/12/08 02:25:39;;;;;;;7.40;1.42;;;3.10;99.90;;;;;;5080308;28;20020;-79
2021/12/08 02:28:08;;;;;;;4.78;1.60;;;3.10;99.90;;;;;;5080793;28;20505;-78
2021/12/08 02:30:44;;;;;;;4.80;1.60;;;3.10;99.90;;;;;;5081391;28;20157;-78
2021/12/08 02:49:38;;;;;;;1.98;1.42;;;3.30;99.90;;;;;;5109872;28;20028;-79
2021/12/08 02:52:07;;;;;;;5.75;1.90;;;3.20;99.90;;;;;;5101188;27;20032;-79
2021/12/08 02:54:40;;;;;;;3.83;1.85;;;3.20;99.90;;;;;;5101132;28;20039;-79
2021/12/08 02:57:06;;;;;;;3.22;1.70;;;3.20;99.90;;;;;;5095305;27;20093;-79
2021/12/08 02:59:32;;;;;;;5.50;1.90;;;3.10;99.90;;;;;;5096573;28;20024;-79
2021/12/08 03:01:58;;;;;;;5.70;1.95;;;3.10;99.90;;;;;;5094914;28;20031;-79
2021/12/08 03:04:24;;;;;;;4.10;1.98;;;3.00;99.90;;;;;;5095400;28;20119;-79
2021/12/08 03:06:50;;;;;;;4.47;1.95;;;3.00;99.90;;;;;;5099197;28;20024;-79
2021/12/08 03:09:16;;;;;;;5.55;2.00;;;2.90;99.90;;;;;;5101821;28;20028;-79
2021/12/08 03:11:41;;;;;;;4.35;1.80;;;2.90;99.90;;;;;;5095932;28;20051;-80
2021/12/08 03:14:12;;;;;;;5.95;1.70;;;2.80;99.90;;;;;;5108836;28;20115;-80
2021/12/08 03:16:42;;;;;;;6.47;2.03;;;2.80;99.90;;;;;;5092413;28;20566;-79
2021/12/08 03:19:08;;;;;;;3.95;1.75;;;2.80;99.90;;;;;;5099335;28;20069;-80
2021/12/08 03:21:34;;;;;;;7.90;2.38;;;2.70;99.90;;;;;;5103985;28;20409;-79
2021/12/08 03:24:16;;;;;;;5.68;2.17;;;2.70;99.90;;;;;;5102569;28;20039;-80
2021/12/08 03:26:51;;;;;;;4.10;1.85;;;2.70;99.90;;;;;;5103278;28;20020;-80
2021/12/08 03:29:32;;;;;;;4.68;2.10;;;2.70;99.90;;;;;;5103251;28;20023;-80
2021/12/08 03:32:06;;;;;;;3.38;2.00;;;2.70;99.90;;;;;;5103023;28;20059;-80
2021/12/08 03:34:36;;;;;;;5.00;2.22;;;2.70;99.90;;;;;;5075513;28;20027;-80
2021/12/08 03:37:03;;;;;;;4.90;1.92;;;2.60;99.90;;;;;;5074342;28;20103;-80
2021/12/08 03:39:29;;;;;;;7.85;2.05;;;2.60;99.90;;;;;;5084620;28;20020;-80
2021/12/08 03:41:55;;;;;;;9.13;2.13;;;2.60;99.90;;;;;;5093123;28;20505;-79
2021/12/08 03:44:20;;;;;;;4.85;2.22;;;2.60;99.90;;;;;;5083870;28;20024;-79
2021/12/08 03:46:46;;;;;;;8.40;2.45;;;2.60;99.90;;;;;;5081546;28;20024;-80
2021/12/08 03:49:15;;;;;;;5.03;2.38;;;2.60;99.90;;;;;;5082741;28;20024;-80
2021/12/08 03:51:41;;;;;;;6.55;2.50;;;2.60;99.90;;;;;;5078680;28;20025;-79
2021/12/08 03:54:08;;;;;;;4.10;2.35;;;2.60;99.90;;;;;;5084610;28;20059;-80
2021/12/08 03:56:34;;;;;;;4.03;2.33;;;2.60;99.90;;;;;;5084911;28;20043;-80
2021/12/08 03:59:00;;;;;;;8.35;2.72;;;2.60;99.90;;;;;;5109071;28;20107;-80
2021/12/08 04:01:26;;;;;;;4.50;2.60;;;2.50;99.90;;;;;;5084049;28;20035;-80
2021/12/08 04:03:52;;;;;;;5.50;2.78;;;2.50;99.90;;;;;;5088513;28;20477;-81
2021/12/08 04:06:30;;;;;;;4.32;2.35;;;2.50;99.90;;;;;;5084549;28;20070;-81
2021/12/08 04:08:56;;;;;;;6.45;2.72;;;2.50;99.90;;;;;;5090427;28;20102;-81
2021/12/08 04:11:24;;;;;;;7.13;2.60;;;2.50;99.90;;;;;;5100409;28;20008;-81
2021/12/08 04:14:05;;;;;;;6.45;2.42;;;2.60;99.90;;;;;;5090439;28;20013;-81
2021/12/08 04:16:37;;;;;;;3.58;2.55;;;2.50;99.90;;;;;;5080735;28;20076;-80
2021/12/08 04:19:06;;;;;;;7.35;3.20;;;2.50;99.90;;;;;;5078630;28;20016;-81
2021/12/08 04:21:34;;;;;;;4.60;2.90;;;2.50;99.90;;;;;;5101467;28;20495;-83
2021/12/08 04:23:59;;;;;;;4.47;2.60;;;2.60;99.90;;;;;;5086498;28;20063;-83
2021/12/08 04:26:50;;;;;;;8.88;2.83;;;2.50;99.90;;;;;;5081112;28;20052;-80
2021/12/08 04:29:20;;;;;;;8.20;2.88;;;2.50;99.90;;;;;;5083527;28;20036;-80
2021/12/08 04:31:47;;;;;;;4.97;2.80;;;2.60;99.90;;;;;;5080309;28;20028;-80
2021/12/08 04:34:23;;;;;;;5.72;2.70;;;2.60;99.90;;;;;;5106162;28;20031;-80
2021/12/08 04:36:51;;;;;;;4.72;2.65;;;2.60;99.90;;;;;;5094029;28;20106;-80
2021/12/08 04:39:51;;;;;;;5.95;3.15;;;2.60;99.90;;;;;;5101919;28;20043;-80
2021/12/08 04:42:25;;;;;;;5.93;3.03;;;2.60;99.90;;;;;;5092514;28;20054;-81
2021/12/08 04:44:57;;;;;;;5.60;3.10;;;2.60;99.90;;;;;;5093518;28;20096;-81
2021/12/08 04:47:37;;;;;;;4.77;2.47;;;2.60;99.90;;;;;;5079198;28;20051;-81
2021/12/08 04:50:45;;;;;;;5.13;2.85;;;2.60;99.90;;;;;;5092539;28;20375;-81
2021/12/08 05:01:45;;;;;;;5.57;3.15;;;2.50;99.90;;;;;;5106099;28;20047;-81
2021/12/08 05:04:40;;;;;;;4.72;2.65;;;2.50;99.90;;;;;;5095242;28;20559;-81
2021/12/08 05:07:29;;;;;;;5.82;3.17;;;2.50;99.90;;;;;;5103154;28;20183;-81
2021/12/08 05:09:56;;;;;;;5.95;3.00;;;2.50;99.90;;;;;;5097744;28;20027;-81
2021/12/08 05:12:26;;;;;;;4.65;2.78;;;2.50;99.90;;;;;;5095300;28;20500;-81
2021/12/08 05:15:05;;;;;;;4.32;2.63;;;2.50;99.90;;;;;;5104933;28;20030;-81
2021/12/08 05:17:51;;;;;;;5.18;2.58;;;2.50;99.90;;;;;;5103132;28;20066;-81
2021/12/08 05:20:43;;;;;;;3.75;2.88;;;2.50;99.90;;;;;;5095631;28;20032;-81
2021/12/08 05:23:21;;;;;;;4.32;2.88;;;2.50;99.90;;;;;;5097152;28;20039;-81
2021/12/08 05:25:47;;;;;;;4.30;2.60;;;2.50;99.90;;;;;;5102527;28;20481;-82
2021/12/08 05:28:17;;;;;;;7.07;3.10;;;2.50;99.90;;;;;;5096070;28;20030;-82
2021/12/08 05:30:50;;;;;;;4.95;2.92;;;2.50;99.90;;;;;;5095731;28;20024;-82
2021/12/08 05:33:17;;;;;;;4.95;2.70;;;2.50;99.90;;;;;;5098228;28;20454;-82
2021/12/08 05:35:44;;;;;;;4.93;3.30;;;2.50;99.90;;;;;;5105177;28;20150;-81
2021/12/08 05:38:10;;;;;;;5.22;2.90;;;2.60;99.90;;;;;;5102221;28;20036;-82
2021/12/08 05:40:49;;;;;;;6.47;3.15;;;2.60;99.90;;;;;;5109878;28;20518;-82
2021/12/08 05:43:15;;;;;;;4.88;3.40;;;2.60;99.90;;;;;;5108864;27;20038;-81
2021/12/08 05:45:42;;;;;;;5.88;3.20;;;2.60;99.90;;;;;;5101243;28;20110;-81
2021/12/08 05:48:08;;;;;;;5.20;2.90;;;2.60;99.90;;;;;;5099753;27;20024;-81
2021/12/08 05:50:50;;;;;;;6.25;3.30;;;2.60;99.90;;;;;;4401118;27;10021536;-80
2021/12/08 05:53:17;;;;;;;6.28;3.47;;;2.70;99.90;;;;;;5092332;28;20402;-82
2021/12/08 05:55:43;;;;;;;10.95;6.07;;;2.70;99.90;;;;;;5102866;28;20328;-81
2021/12/08 05:58:10;;;;;;;7.97;3.92;;;2.70;99.90;;;;;;5096681;28;20020;-81
2021/12/08 06:00:42;;;;;;;7.05;3.47;;;2.70;99.90;;;;;;5101224;28;20028;-81
2021/12/08 06:03:10;;;;;;;4.55;3.08;;;2.80;99.90;;;;;;5096548;27;20084;-80
2021/12/08 06:05:36;;;;;;;5.88;3.45;;;2.80;99.90;;;;;;5103722;28;20046;-81
2021/12/08 06:08:03;;;;;;;4.82;3.10;;;2.80;99.90;;;;;;5101863;27;20030;-81
2021/12/08 06:10:34;;;;;;;6.32;3.17;;;2.70;99.90;;;;;;4393886;28;10000825;-81
2021/12/08 06:13:02;;;;;;;5.20;3.30;;;2.70;99.90;;;;;;5100748;28;20054;-81
2021/12/08 06:15:28;;;;;;;6.03;3.67;;;2.70;99.90;;;;;;5096326;28;22387;-82
2021/12/08 06:17:54;;;;;;;4.38;3.35;;;2.70;99.90;;;;;;5099448;28;20862;-82
2021/12/08 06:20:21;;;;;;;7.38;3.47;;;2.80;99.90;;;;;;5097567;28;20055;-81
2021/12/08 06:22:49;;;;;;;6.85;3.50;;;2.70;99.90;;;;;;5102071;28;20040;-81
2021/12/08 06:25:17;;;;;;;4.82;3.38;;;2.70;99.90;;;;;;5105938;28;20051;-79
2021/12/08 06:27:43;;;;;;;6.35;3.35;;;2.70;99.90;;;;;;5102864;27;20035;-82
2021/12/08 06:30:13;;;;;;;4.90;3.15;;;2.80;99.90;;;;;;5097924;28;20100;-81
2021/12/08 06:32:39;;;;;;;3.67;3.17;;;2.80;99.90;;;;;;5101540;28;20185;-81
2021/12/08 06:35:09;;;;;;;6.82;3.65;;;2.80;99.90;;;;;;5099470;27;20413;-81
2021/12/08 06:37:39;;;;;;;4.18;3.33;;;2.80;99.90;;;;;;5097912;28;20024;-81
2021/12/08 06:40:09;;;;;;;4.10;3.13;;;2.80;99.90;;;;;;5103089;28;20536;-81
2021/12/08 06:42:40;;;;;;;7.85;3.22;;;2.80;99.90;;;;;;5108204;28;20028;-81
2021/12/08 06:45:10;;;;;;;4.80;3.42;;;2.80;99.90;;;;;;5101462;28;20034;-82
2021/12/08 06:47:36;;;;;;;6.05;3.40;;;2.80;99.90;;;;;;5100862;28;20039;-82
2021/12/08 06:50:13;;;;;;;6.53;3.30;;;2.80;99.90;;;;;;5101534;28;20032;-81
2021/12/08 06:52:39;;;;;;;6.07;3.00;;;2.80;99.90;;;;;;5101138;28;20070;-78
2021/12/08 06:55:13;;;;;;;5.85;3.10;;;2.80;99.90;;;;;;5100995;28;20028;-76
2021/12/08 06:58:22;;;;;;;4.68;2.95;;;2.80;99.90;;;;;;5101634;28;20354;-77
2021/12/08 07:01:10;;;;;;;4.75;3.05;;;2.90;99.90;;;;;;5024430;28;20435;-77
2021/12/08 07:04:03;;;;;;;6.20;3.00;;;2.90;99.90;;;;;;5020831;28;20056;-77
2021/12/08 07:09:18;;;;;;;5.38;2.95;;;2.90;99.90;;;;;;5099004;28;20266;-77
2021/12/08 07:11:45;;;;;;;6.45;2.78;;;2.90;99.90;;;;;;5102005;28;20035;-78
2021/12/08 07:14:11;;;;;;;5.65;3.13;;;2.90;99.90;;;;;;5088848;28;20039;-77
2021/12/08 07:16:42;;;;;;;4.35;3.00;;;3.00;99.90;;;;;;5100273;28;20061;-77
2021/12/08 07:19:21;;;;;;;4.22;2.97;;;3.00;99.90;;;;;;5100536;28;20039;-77
2021/12/08 07:21:49;;;;;;;5.22;3.55;;;3.00;99.90;;;;;;5103216;28;20027;-77
2021/12/08 07:24:20;;;;;;;4.38;2.80;;;2.90;99.90;;;;;;5094555;28;20208;-77
2021/12/08 07:26:47;;;;;;;5.93;3.45;;;2.90;99.90;;;;;;5092422;28;20501;-77
2021/12/08 07:29:16;;;;;;;11.32;3.05;;;2.90;99.90;;;;;;5102774;28;20028;-77
2021/12/08 07:31:51;;;;;;;5.10;2.90;;;2.90;99.90;;;;;;5096941;28;20021;-77
2021/12/08 07:34:19;;;;;;;3.70;2.70;;;2.90;99.90;;;;;;5097339;28;20044;-77
2021/12/08 07:36:52;;;;;;;6.38;2.80;;;3.00;99.90;;;;;;5101809;28;20024;-77
2021/12/08 07:39:24;;;;;;;4.22;3.13;;;2.90;99.90;;;;;;5103035;28;20027;-78
2021/12/08 07:41:53;;;;;;;7.35;2.58;;;2.90;99.90;;;;;;5103703;28;20039;-77
2021/12/08 07:44:21;;;;;;;5.93;3.30;;;3.00;99.90;;;;;;5098810;28;20031;-77
2021/12/08 07:47:03;;;;;;;5.32;3.45;;;3.00;99.90;;;;;;5102628;28;20036;-77
2021/12/08 07:49:33;;;;;;;6.28;3.10;;;3.00;99.90;;;;;;5104350;28;20047;-77
2021/12/08 07:52:13;;;;;;;5.70;2.97;;;3.00;99.90;;;;;;5108036;28;20020;-77
2021/12/08 07:54:41;;;;;;;6.80;3.17;;;3.00;99.90;;;;;;5098649;28;20024;-77
2021/12/08 07:57:14;;;;;;;6.70;3.25;;;3.00;99.90;;;;;;5090762;28;20043;-74
2021/12/08 07:59:43;;;;;;;7.10;2.97;;;3.00;99.90;;;;;;5100579;28;20481;-77
2021/12/08 08:02:10;;;;;;;4.78;3.13;;;3.10;99.90;;;;;;5097534;28;20067;-75
2021/12/08 08:04:40;;;;;;;4.90;3.17;;;3.10;99.90;;;;;;5098565;28;20031;-75
2021/12/08 08:07:08;;;;;;;6.13;3.15;;;3.10;99.90;;;;;;5097616;28;20011;-77
2021/12/08 08:09:40;;;;;;;4.93;3.60;;;3.10;99.90;;;;;;5107004;28;20044;-78
2021/12/08 08:12:09;;;;;;;7.38;3.40;;;3.00;99.90;;;;;;5105040;28;20103;-76
2021/12/08 08:14:39;;;;;;;5.60;3.42;;;3.10;99.90;;;;;;5103974;28;20042;-75
2021/12/08 08:17:08;;;;;;;9.25;4.00;;;3.10;99.90;;;;;;5099186;28;20032;-85
2021/12/08 08:19:41;;;;;;;5.72;3.55;;;3.00;99.90;;;;;;5097167;28;20122;-75
2021/12/08 08:22:10;;;;;;;4.85;3.10;;;3.10;99.90;;;;;;5091667;28;20035;-74
2021/12/08 08:24:37;;;;;;;8.35;3.50;;;3.10;99.90;;;;;;5106783;28;20023;-77
2021/12/08 08:27:06;;;;;;;6.75;3.50;;;3.10;99.90;;;;;;5103127;28;20028;-74
2021/12/08 08:29:33;;;;;;;8.02;3.80;;;3.10;99.90;;;;;;5092710;28;20297;-74
2021/12/08 08:32:16;;;;;;;7.65;3.90;;;3.10;99.90;;;;;;5088495;28;20023;-77
2021/12/08 08:34:45;;;;;;;5.07;3.58;;;3.00;99.90;;;;;;5084757;28;20111;-78
2021/12/08 08:37:12;;;;;;;4.35;3.17;;;3.00;99.90;;;;;;5080533;28;20485;-78
2021/12/08 08:39:44;;;;;;;3.42;3.10;;;3.00;99.90;;;;;;5094847;28;20020;-78
2021/12/08 08:42:20;;;;;;;5.80;2.80;;;3.00;99.90;;;;;;5103494;28;20020;-78
2021/12/08 08:45:05;;;;;;;6.22;4.07;;;3.00;99.90;;;;;;5085887;28;20618;-75
2021/12/08 08:47:36;;;;;;;6.30;3.60;;;3.00;99.90;;;;;;5074819;28;20053;-78
2021/12/08 08:50:06;;;;;;;8.00;4.13;;;3.00;99.90;;;;;;5080317;28;20024;-76
2021/12/08 08:52:36;;;;;;;5.78;3.70;;;2.90;99.90;;;;;;5092418;28;20088;-78
2021/12/08 08:55:10;;;;;;;7.07;3.92;;;2.90;99.90;;;;;;5086074;28;20064;-78
2021/12/08 08:57:38;;;;;;;7.95;4.05;;;2.90;99.90;;;;;;5073194;28;20074;-76
2021/12/08 09:00:25;;;;;;;6.85;4.10;;;2.90;99.90;;;;;;5089995;28;20039;-82
2021/12/08 09:02:52;;;;;;;7.15;4.50;;;2.90;99.90;;;;;;5071012;28;20656;-77
2021/12/08 09:05:23;;;;;;;6.40;4.10;;;2.90;99.90;;;;;;5077364;28;20032;-76
2021/12/08 09:07:52;;;;;;;6.68;4.00;;;2.90;99.90;;;;;;5084325;28;20505;-77
2021/12/08 09:10:34;;;;;;;6.65;4.07;;;2.90;99.90;;;;;;5078360;28;21205;-78
2021/12/08 09:13:07;;;;;;;6.53;4.10;;;2.90;99.90;;;;;;5074101;28;20017;-82
2021/12/08 09:15:38;;;;;;;8.98;4.18;;;3.00;99.90;;;;;;5078711;28;20502;-76
2021/12/08 09:18:18;;;;;;;5.97;4.03;;;2.90;99.90;;;;;;5086112;28;20032;-78
2021/12/08 09:20:45;;;;;;;5.03;3.97;;;2.90;99.90;;;;;;5091062;28;20031;-77
2021/12/08 09:23:21;;;;;;;7.47;4.03;;;2.90;99.90;;;;;;5088883;28;20036;-77
2021/12/08 09:25:51;;;;;;;6.10;4.05;;;3.00;99.90;;;;;;5087828;28;20108;-77
2021/12/08 09:28:29;;;;;;;8.50;4.30;;;3.00;99.90;;;;;;5088742;28;20028;-77
2021/12/08 09:31:04;;;;;;;6.25;3.97;;;3.10;99.90;;;;;;5092786;28;20032;-86
2021/12/08 09:33:39;;;;;;;6.57;4.00;;;3.20;99.90;;;;;;5093198;28;20081;-76
2021/12/08 09:36:11;;;;;;;8.25;4.45;;;3.20;99.90;;;;;;5104200;28;20031;-74
2021/12/08 09:38:48;;;;;;;7.68;4.10;;;3.20;99.90;;;;;;5107048;28;20453;-76
2021/12/08 09:41:18;;;;;;;6.47;3.85;;;3.10;99.90;;;;;;5102845;28;20043;-80
2021/12/08 09:43:55;;;;;;;5.93;4.32;;;3.10;99.90;;;;;;5105550;28;20020;-74
2021/12/08 09:46:28;;;;;;;6.22;4.30;;;3.20;99.90;;;;;;5098651;28;20110;-75
2021/12/08 09:48:54;;;;;;;6.43;4.60;;;3.20;99.90;;;;;;5103925;28;20432;-75
2021/12/08 09:51:25;;;;;;;7.55;4.47;;;3.20;99.90;;;;;;5110313;28;20529;-75
2021/12/08 09:53:51;;;;;;;8.02;4.60;;;3.20;99.90;;;;;;5105044;28;20046;-76
2021/12/08 09:56:18;;;;;;;10.23;4.95;;;3.20;99.90;;;;;;5104430;28;20024;-75
2021/12/08 09:58:44;;;;;;;7.05;4.45;;;3.20;99.90;;;;;;5102118;28;20051;-77
2021/12/08 10:01:15;;;;;;;10.32;5.18;;;3.20;99.90;;;;;;5103916;28;20103;-78
2021/12/08 10:03:41;;;;;;;6.68;5.10;;;3.20;99.90;;;;;;5107544;28;20377;-77
2021/12/08 10:06:08;;;;;;;7.32;4.88;;;3.30;99.90;;;;;;5107424;28;20042;-77
2021/12/08 10:08:34;;;;;;;6.10;4.53;;;3.30;99.90;;;;;;5101720;28;20032;-80
2021/12/08 10:11:00;;;;;;;9.88;4.78;;;3.30;99.90;;;;;;5102694;28;20034;-79
2021/12/08 10:13:26;;;;;;;10.45;5.57;;;3.30;99.90;;;;;;5108134;28;20202;-81
2021/12/08 10:15:51;;;;;;;9.35;5.00;;;3.30;99.90;;;;;;5106397;28;20561;-78
2021/12/08 10:18:17;;;;;;;8.70;5.55;;;3.30;99.90;;;;;;5094382;28;20023;-81
2021/12/08 10:20:47;;;;;;;9.85;5.25;;;3.30;99.90;;;;;;5103273;28;20055;-82
2021/12/08 10:23:34;;;;;;;9.32;5.80;;;3.30;99.90;;;;;;5095550;28;20067;-83
2021/12/08 10:26:07;;;;;;;7.78;5.25;;;3.30;99.90;;;;;;5104311;28;20129;-83
2021/12/08 10:28:42;;;;;;;10.20;5.25;;;3.30;99.90;;;;;;5101618;28;20526;-82
2021/12/08 10:31:12;;;;;;;7.82;5.35;;;3.30;99.90;;;;;;5094070;28;20822;-83
2021/12/08 10:36:49;;;;;;;12.23;5.25;;;3.40;99.90;;;;;;5085793;28;20035;-84
2021/12/08 10:39:20;;;;;;;7.28;5.00;;;3.40;99.90;;;;;;5084214;28;20471;-84
2021/12/08 10:41:51;;;;;;;9.57;5.72;;;3.40;99.90;;;;;;5107139;28;20032;-84
2021/12/08 10:44:31;;;;;;;9.95;5.60;;;3.40;99.90;;;;;;5087379;28;20028;-84
2021/12/08 10:46:58;;;;;;;10.52;5.38;;;3.40;99.90;;;;;;5093978;28;20036;-84
2021/12/08 10:54:40;;;;;;;8.93;6.10;;;3.50;99.90;;;;;;5074263;28;20039;-85
2021/12/08 10:57:30;;;;;;;8.15;5.22;;;3.50;99.90;;;;;;5086369;28;20036;-84
2021/12/08 11:00:05;;;;;;;8.93;5.10;;;3.50;99.90;;;;;;5073708;28;20036;-84
2021/12/08 11:02:51;;;;;;;9.00;5.63;;;3.50;99.90;;;;;;5082256;28;20096;-85
2021/12/08 11:05:27;;;;;;;8.75;5.70;;;3.60;99.90;;;;;;5085998;28;20024;-84
2021/12/08 11:08:00;;;;;;;10.13;6.20;;;3.60;99.90;;;;;;5077186;28;20040;-83
2021/12/08 11:10:26;;;;;;;8.70;5.47;;;3.60;99.90;;;;;;5080311;28;20501;-83
2021/12/08 11:12:54;;;;;;;11.18;6.10;;;3.60;99.90;;;;;;5082164;28;20040;-84
2021/12/08 11:15:22;;;;;;;8.30;6.25;;;3.70;99.90;;;;;;5079476;28;20032;-83
2021/12/08 11:18:05;;;;;;;10.32;6.53;;;3.70;99.90;;;;;;5073056;28;20044;-83
2021/12/08 11:20:32;;;;;;;7.65;5.10;;;3.70;99.90;;;;;;5093433;28;20023;-83
2021/12/08 11:23:04;;;;;;;7.28;5.75;;;3.70;99.90;;;;;;5086706;28;20112;-84
2021/12/08 11:25:39;;;;;;;11.43;5.93;;;3.70;99.90;;;;;;5076294;28;20028;-83
2021/12/08 11:28:33;;;;;;;11.13;5.78;;;3.70;99.90;;;;;;5071716;28;20225;-83
2021/12/08 11:31:06;;;;;;;8.10;5.97;;;3.70;99.90;;;;;;5082954;28;20400;-83
2021/12/08 11:33:36;;;;;;;7.15;5.32;;;3.70;99.90;;;;;;5077777;28;20045;-83
2021/12/08 11:36:16;;;;;;;13.05;6.00;;;3.70;99.90;;;;;;5074094;28;20032;-84
2021/12/08 11:38:44;;;;;;;7.90;6.30;;;3.80;99.90;;;;;;5081972;28;20161;-83
2021/12/08 11:41:29;;;;;;;11.18;6.55;;;3.80;99.90;;;;;;5075847;28;20019;-78
2021/12/08 11:43:57;;;;;;;11.57;5.90;;;;;;;;;;5075193;28;20050;-83
2021/12/08 11:46:23;;;;;;;10.48;6.22;;;3.90;99.90;;;;;;5084620;28;20777;-83
2021/12/08 11:49:07;;;;;;;8.57;5.80;;;3.90;99.90;;;;;;5104008;28;20023;-83
2021/12/08 11:51:41;;;;;;;;;;;3.90;99.90;;;;;;5074169;28;20695;-83
2021/12/08 11:54:07;;;;;;;10.77;6.07;;;3.90;99.90;;;;;;5089178;28;19908;-83
2021/12/08 11:56:39;;;;;;;8.93;5.78;;;3.90;99.90;;;;;;5078035;28;20031;-83
2021/12/08 11:59:08;;;;;;;11.43;6.90;;;4.00;99.90;;;;;;5078410;28;20642;-83
2021/12/08 12:01:36;;;;;;;15.27;8.90;;;4.00;99.90;;;;;;5083231;28;20020;-83
2021/12/08 12:04:04;;;;;;;12.75;9.88;;;4.00;99.90;;;;;;5082825;28;20698;-83
2021/12/08 12:06:30;;;;;;;9.88;8.10;;;4.00;99.90;;;;;;5075562;28;20032;-84
2021/12/08 12:08:58;;;;;;;10.45;7.40;;;4.00;99.90;;;;;;5093103;28;20092;-83
2021/12/08 12:11:26;;;;;;;9.88;7.10;;;4.00;99.90;;;;;;5081432;28;20029;-83
2021/12/08 12:13:54;;;;;;;13.73;7.55;;;4.10;99.90;;;;;;5073801;28;20657;-83
2021/12/08 12:16:20;;;;;;;11.48;8.43;;;4.10;99.90;;;;;;5073775;28;20027;-83
2021/12/08 12:18:46;;;;;;;10.07;7.18;;;4.10;99.90;;;;;;5082213;28;20366;-83
2021/12/08 12:21:21;;;;;;;10.20;7.03;;;4.10;99.90;;;;;;5084050;28;20043;-83
2021/12/08 12:23:56;;;;;;;11.57;7.05;;;4.10;99.90;;;;;;5080110;28;20439;-82
2021/12/08 12:27:14;;;;;;;12.20;6.85;;;4.20;99.90;;;;;;5083914;28;20024;-83
2021/12/08 12:30:08;;;;;;;10.23;6.68;;;4.20;99.90;;;;;;5068378;28;20029;-82
2021/12/08 12:32:47;;;;;;;10.43;6.40;;;4.20;99.90;;;;;;5081256;28;20044;-83
2021/12/08 12:35:24;;;;;;;9.20;6.65;;;4.30;99.90;;;;;;5080503;28;20079;-89
2021/12/08 12:38:04;;;;;;;12.68;7.72;;;4.30;99.90;;;;;;5100118;28;20030;-87
2021/12/08 12:40:34;;;;;;;10.52;7.47;;;4.30;99.90;;;;;;5068738;28;20032;-86
2021/12/08 12:43:00;;;;;;;11.25;7.45;;;4.40;99.90;;;;;;5082880;28;21529;-85
2021/12/08 12:45:35;;;;;;;12.25;8.02;;;4.40;99.90;;;;;;5086847;28;20556;-86
2021/12/08 12:48:19;;;;;;;12.48;7.88;;;4.50;99.90;;;;;;5082292;28;20036;-82
2021/12/08 12:50:55;;;;;;;;;;;4.50;99.90;;;;;;5084439;28;20020;-83
2021/12/08 12:53:56;;;;;;;10.32;6.85;;;4.50;99.90;;;;;;5081140;28;19914;-88
2021/12/08 12:56:34;;;;;;;9.63;7.13;;;4.50;99.90;;;;;;4972204;28;20049;-82
2021/12/08 12:59:16;;;;;;;10.30;7.03;;;4.50;99.90;;;;;;5068173;28;21749;-81
2021/12/08 13:01:46;;;;;;;12.60;7.43;;;4.50;99.90;;;;;;5093272;28;20059;-80
2021/12/08 13:04:23;;;;;;;10.98;7.40;;;4.50;99.90;;;;;;5074594;28;20056;-81
2021/12/08 13:07:01;;;;;;;9.18;7.25;;;4.50;99.90;;;;;;5085537;28;20035;-80
2021/12/08 13:09:38;;;;;;;11.80;7.13;;;4.50;99.90;;;;;;5099086;28;20024;-78
2021/12/08 13:12:26;;;;;;;8.77;6.63;;;4.50;99.90;;;;;;5102971;28;20028;-81
2021/12/08 13:15:23;;;;;;;11.75;6.57;;;4.40;99.90;;;;;;5078766;28;20126;-79
2021/12/08 13:18:07;;;;;;;13.00;6.45;;;4.40;99.90;;;;;;5076875;28;20045;-78
2021/12/08 13:20:36;;;;;;;10.82;6.85;;;4.40;99.90;;;;;;5082453;28;20111;-78
2021/12/08 13:23:06;;;;;;;9.77;7.13;;;4.40;99.90;;;;;;5086214;28;20035;-77
2021/12/08 13:25:45;;;;;;;8.57;6.35;;;4.40;99.90;;;;;;5077402;28;20073;-77
2021/12/08 13:28:14;;;;;;;10.20;6.78;;;4.50;99.90;;;;;;5081100;28;20024;-76
2021/12/08 13:30:47;;;;;;;9.57;6.72;;;4.50;99.90;;;;;;5090919;28;20472;-87
2021/12/08 13:33:42;;;;;;;11.68;7.25;;;4.50;99.90;;;;;;5095258;27;20047;-85
2021/12/08 13:36:20;;;;;;;14.38;6.57;;;4.50;99.90;;;;;;5086031;28;20043;-84
2021/12/08 13:39:03;;;;;;;10.80;6.30;;;4.40;99.90;;;;;;4748382;28;10001077;-77
2021/12/08 13:41:32;;;;;;;9.23;6.60;;;4.40;99.90;;;;;;5097515;28;20088;-78
2021/12/08 13:44:02;;;;;;;11.90;7.25;;;4.40;99.90;;;;;;5097716;28;20042;-83
2021/12/08 13:46:36;;;;;;;14.75;7.82;;;4.40;99.90;;;;;;5094291;28;20238;-82
2021/12/08 13:49:20;;;;;;;36.10;20.52;;;4.40;99.90;;;;;;5103873;28;20084;-82
2021/12/08 13:52:07;;;;;;;11.45;7.88;;;4.40;99.90;;;;;;5101263;28;20437;-76
2021/12/08 13:54:36;;;;;;;10.13;7.00;;;4.40;99.90;;;;;;5094581;28;20035;-83
2021/12/08 13:57:05;;;;;;;12.40;7.63;;;4.40;99.90;;;;;;5105936;28;20123;-86
2021/12/08 13:59:54;;;;;;;17.83;9.50;;;4.40;99.90;;;;;;5090307;28;20024;-87